createdAt,value
2023-02-22T00:00:10.230Z,6.6
2023-02-22T00:03:10.414Z,6.4
2023-02-22T00:06:09.974Z,6.3
2023-02-22T00:09:09.885Z,6.2
2023-02-22T00:12:09.917Z,6.2
2023-02-22T00:15:09.955Z,6.1
2023-02-22T00:18:09.910Z,6
2023-02-22T00:21:10.082Z,5.8
2023-02-22T00:24:09.915Z,5.7
2023-02-22T00:27:10.171Z,5.6
2023-02-22T00:30:10.291Z,5.6
2023-02-22T00:33:10.016Z,5.4
2023-02-22T00:36:10.048Z,5.4
2023-02-22T00:39:10.005Z,5.3
2023-02-22T00:42:09.984Z,5.2
2023-02-22T00:45:09.948Z,5.1
2023-02-22T00:48:09.993Z,5
2023-02-22T00:51:09.976Z,5
2023-02-22T00:54:09.968Z,5
2023-02-22T00:57:09.878Z,5
2023-02-22T01:00:09.906Z,5
2023-02-22T01:03:10.378Z,5
2023-02-22T01:06:09.930Z,4.9
2023-02-22T01:09:09.991Z,4.9
2023-02-22T01:12:09.956Z,4.9
2023-02-22T01:15:09.912Z,4.9
2023-02-22T01:18:09.907Z,4.9
2023-02-22T01:21:09.933Z,4.9
2023-02-22T01:24:09.878Z,4.9
2023-02-22T01:27:09.921Z,4.9
2023-02-22T01:30:10.208Z,4.8
2023-02-22T01:33:09.968Z,4.8
2023-02-22T01:36:09.936Z,4.8
2023-02-22T01:39:09.941Z,4.7
2023-02-22T01:42:09.909Z,4.6
2023-02-22T01:45:09.927Z,4.5
2023-02-22T01:48:09.931Z,4.4
2023-02-22T01:51:09.942Z,4.4
2023-02-22T01:54:09.948Z,4.3
2023-02-22T01:57:09.922Z,4.1
2023-02-22T02:00:09.962Z,3.9
2023-02-22T02:03:09.918Z,3.9
2023-02-22T02:06:10.050Z,3.7
2023-02-22T02:09:09.968Z,3.5
2023-02-22T02:12:09.943Z,3.4
2023-02-22T02:15:10.015Z,3.4
2023-02-22T02:18:10.001Z,3.2
2023-02-22T02:21:09.912Z,3.1
2023-02-22T02:24:09.893Z,3.1
2023-02-22T02:27:09.944Z,2.9
2023-02-22T02:30:10.045Z,2.8
2023-02-22T02:33:09.888Z,2.8
2023-02-22T02:36:09.969Z,2.7
2023-02-22T02:39:09.963Z,2.7
2023-02-22T02:42:09.903Z,2.6
2023-02-22T02:45:09.959Z,2.6
2023-02-22T02:48:09.960Z,2.4
2023-02-22T02:51:09.948Z,2.2
2023-02-22T02:54:09.914Z,2.2
2023-02-22T02:57:09.938Z,2.2
2023-02-22T03:00:09.973Z,2.1
2023-02-22T03:03:09.985Z,2.1
2023-02-22T03:06:09.925Z,2.2
2023-02-22T03:09:09.875Z,2.2
2023-02-22T03:12:10.232Z,2.2
2023-02-22T03:15:10.246Z,2.1
2023-02-22T03:18:09.948Z,2.1
2023-02-22T03:21:09.940Z,2.1
2023-02-22T03:24:09.933Z,2.1
2023-02-22T03:27:09.894Z,2.1
2023-02-22T03:30:10.196Z,2.1
2023-02-22T03:33:09.956Z,1.9
2023-02-22T03:36:09.917Z,2
2023-02-22T03:39:10.004Z,2.1
2023-02-22T03:42:09.935Z,2.1
2023-02-22T03:45:09.954Z,2.1
2023-02-22T03:48:09.917Z,2.1
2023-02-22T03:51:09.986Z,2.1
2023-02-22T03:54:09.948Z,2
2023-02-22T03:57:10.061Z,1.9
2023-02-22T04:00:09.996Z,1.8
2023-02-22T04:03:10.168Z,1.8
2023-02-22T04:06:09.935Z,1.7
2023-02-22T04:09:09.936Z,1.6
2023-02-22T04:12:09.931Z,1.6
2023-02-22T04:15:09.933Z,1.6
2023-02-22T04:18:09.971Z,1.4
2023-02-22T04:21:09.916Z,1.3
2023-02-22T04:24:09.971Z,1.5
2023-02-22T04:27:09.905Z,1.6
2023-02-22T04:30:10.339Z,1.9
2023-02-22T04:33:09.934Z,1.9
2023-02-22T04:36:09.964Z,1.8
2023-02-22T04:39:09.930Z,1.9
2023-02-22T04:42:09.985Z,1.9
2023-02-22T04:45:09.946Z,2.1
2023-02-22T04:48:09.948Z,2.1
2023-02-22T04:51:09.921Z,1.9
2023-02-22T04:54:09.923Z,1.9
2023-02-22T04:57:10.037Z,2
2023-02-22T05:00:09.999Z,2.1
2023-02-22T05:03:09.973Z,1.9
2023-02-22T05:06:09.953Z,1.8
2023-02-22T05:09:09.968Z,1.7
2023-02-22T05:12:09.929Z,1.6
2023-02-22T05:15:09.950Z,1.6
2023-02-22T05:18:09.947Z,1.6
2023-02-22T05:21:09.941Z,1.8
2023-02-22T05:24:09.899Z,1.8
2023-02-22T05:27:09.927Z,1.8
2023-02-22T05:30:10.169Z,1.8
2023-02-22T05:33:09.961Z,1.6
2023-02-22T05:36:10.133Z,1.5
2023-02-22T05:39:09.981Z,1.4
2023-02-22T05:42:09.956Z,1.5
2023-02-22T05:45:09.914Z,1.3
2023-02-22T05:48:09.995Z,1.3
2023-02-22T05:51:10.145Z,1.6
2023-02-22T05:54:09.986Z,1.9
2023-02-22T05:57:09.945Z,2.1
2023-02-22T06:00:10.003Z,2.2
2023-02-22T06:03:09.970Z,2.3
2023-02-22T06:06:10.023Z,2.4
2023-02-22T06:09:09.933Z,2.5
2023-02-22T06:12:09.983Z,2.7
2023-02-22T06:15:09.923Z,2.7
2023-02-22T06:18:10.016Z,2.8
2023-02-22T06:21:09.987Z,2.9
2023-02-22T06:24:09.963Z,3.1
2023-02-22T06:27:10.034Z,3.3
2023-02-22T06:30:12.895Z,3.4
2023-02-22T06:33:10.004Z,3.5
2023-02-22T06:36:09.984Z,3.6
2023-02-22T06:39:09.956Z,3.6
2023-02-22T06:42:10.467Z,3.6
2023-02-22T06:45:10.023Z,3.6
2023-02-22T06:48:10.013Z,3.6
2023-02-22T06:51:10.014Z,3.7
2023-02-22T06:54:10.110Z,3.8
2023-02-22T06:57:09.977Z,3.9
2023-02-22T07:00:10.212Z,4
2023-02-22T07:03:10.242Z,4.1
2023-02-22T07:06:10.029Z,4.1
2023-02-22T07:09:09.957Z,4.2
2023-02-22T07:12:10.025Z,4.2
2023-02-22T07:15:09.987Z,4.4
2023-02-22T07:18:10.084Z,4.5
2023-02-22T07:21:10.024Z,4.6
2023-02-22T07:24:12.304Z,4.7
2023-02-22T07:27:10.040Z,4.9
2023-02-22T07:30:10.131Z,5.1
2023-02-22T07:33:10.513Z,5.2
2023-02-22T07:36:10.064Z,5.2
2023-02-22T07:39:09.991Z,5.4
2023-02-22T07:42:10.084Z,5.4
2023-02-22T07:45:10.054Z,5.5
2023-02-22T07:48:10.061Z,5.6
2023-02-22T07:51:10.094Z,5.6
2023-02-22T07:54:10.116Z,5.6
2023-02-22T07:57:10.037Z,5.6
2023-02-22T08:00:10.561Z,5.7
2023-02-22T08:03:10.008Z,5.7
2023-02-22T08:06:10.003Z,5.7
2023-02-22T08:09:10.149Z,5.8
2023-02-22T08:12:10.027Z,5.9
2023-02-22T08:15:09.984Z,6
2023-02-22T08:18:10.279Z,6.1
2023-02-22T08:21:10.083Z,6.2
2023-02-22T08:24:10.241Z,6.3
2023-02-22T08:27:10.060Z,6.4
2023-02-22T08:30:10.168Z,6.6
2023-02-22T08:33:11.140Z,6.6
2023-02-22T08:36:09.941Z,6.8
2023-02-22T08:39:10.031Z,6.9
2023-02-22T08:42:10.024Z,7.1
2023-02-22T08:45:10.066Z,7.2
2023-02-22T08:48:10.074Z,7.4
2023-02-22T08:51:09.970Z,7.5
2023-02-22T08:54:10.042Z,7.7
2023-02-22T08:57:10.108Z,7.8
2023-02-22T09:00:10.147Z,8.2
2023-02-22T09:03:10.125Z,8.9
2023-02-22T09:06:10.440Z,9.6
2023-02-22T09:09:10.015Z,10.4
2023-02-22T09:12:10.020Z,11.2
2023-02-22T09:15:10.039Z,11.7
2023-02-22T09:18:10.092Z,11.9
2023-02-22T09:21:10.098Z,11.9
2023-02-22T09:24:09.991Z,12.2
2023-02-22T09:27:10.136Z,12.2
2023-02-22T09:30:10.214Z,12.5
2023-02-22T09:33:11.182Z,12.9
2023-02-22T09:36:10.018Z,13.3
2023-02-22T09:39:09.993Z,13.6
2023-02-22T09:42:10.049Z,14
2023-02-22T09:45:10.066Z,13.4
2023-02-22T09:48:30.219Z,13.8
2023-02-22T09:51:10.008Z,13.7
2023-02-22T09:54:10.111Z,13.9
2023-02-22T09:57:09.995Z,13.7
2023-02-22T10:00:10.378Z,13.9
2023-02-22T10:03:10.057Z,13.8
2023-02-22T10:06:09.934Z,13.9
2023-02-22T10:09:10.282Z,14.4
2023-02-22T10:12:10.023Z,14.4
2023-02-22T10:15:10.184Z,14.4
2023-02-22T10:18:10.144Z,14.1
2023-02-22T10:21:10.182Z,13.8
2023-02-22T10:24:10.002Z,13.8
2023-02-22T10:27:10.030Z,13.6
2023-02-22T10:30:33.415Z,13.9
2023-02-22T10:33:10.087Z,13.6
2023-02-22T10:36:10.074Z,13.6
2023-02-22T10:39:10.301Z,13.4
2023-02-22T10:42:09.991Z,13.3
2023-02-22T10:45:10.020Z,13.1
2023-02-22T10:48:10.038Z,12.9
2023-02-22T10:51:10.049Z,13
2023-02-22T10:54:11.131Z,12.9
2023-02-22T10:57:10.071Z,13.1
2023-02-22T11:00:10.129Z,13.3
2023-02-22T11:03:09.998Z,13.9
2023-02-22T11:06:12.329Z,14.4
2023-02-22T11:09:10.027Z,14.6
2023-02-22T11:12:10.078Z,14.4
2023-02-22T11:15:10.047Z,14.1
2023-02-22T11:18:13.269Z,14.3
2023-02-22T11:21:10.047Z,14.4
2023-02-22T11:24:10.017Z,14.4
2023-02-22T11:27:10.052Z,14.7
2023-02-22T11:30:12.719Z,14.5
2023-02-22T11:33:10.045Z,14.4
2023-02-22T11:36:10.037Z,14.3
2023-02-22T11:39:10.340Z,14.2
2023-02-22T11:42:10.050Z,14
2023-02-22T11:45:10.066Z,14
2023-02-22T11:48:10.116Z,13.9
2023-02-22T11:51:10.066Z,13.9
2023-02-22T11:54:09.954Z,14.3
2023-02-22T11:57:10.101Z,14.4
2023-02-22T12:00:10.076Z,14.4
2023-02-22T12:03:10.074Z,14.3
2023-02-22T12:06:10.041Z,14.4
2023-02-22T12:09:10.087Z,14.9
2023-02-22T12:12:10.013Z,15.3
2023-02-22T12:15:10.075Z,15.2
2023-02-22T12:18:09.969Z,15.1
2023-02-22T12:21:10.011Z,15.1
2023-02-22T12:24:10.042Z,14.9
2023-02-22T12:27:12.449Z,14.8
2023-02-22T12:30:10.133Z,14.8
2023-02-22T12:33:12.894Z,15.1
2023-02-22T12:36:10.083Z,15.1
2023-02-22T12:39:13.290Z,15.1
2023-02-22T12:42:09.952Z,15.1
2023-02-22T12:45:15.779Z,15.1
2023-02-22T12:48:10.003Z,15.1
2023-02-22T12:51:10.062Z,14.9
2023-02-22T12:54:10.250Z,14.9
2023-02-22T12:57:10.121Z,15.1
2023-02-22T13:00:10.166Z,14.9
2023-02-22T13:03:10.050Z,14.7
2023-02-22T13:06:10.012Z,14.6
2023-02-22T13:09:10.036Z,14.7
2023-02-22T13:12:09.940Z,14.7
2023-02-22T13:15:09.968Z,14.7
2023-02-22T13:18:11.107Z,14.7
2023-02-22T13:21:10.082Z,14.8
2023-02-22T13:24:10.075Z,14.6
2023-02-22T13:27:10.082Z,14.5
2023-02-22T13:30:10.463Z,14.6
2023-02-22T13:33:10.098Z,14.7
2023-02-22T13:36:10.066Z,14.7
2023-02-22T13:39:10.368Z,14.7
2023-02-22T13:42:10.071Z,14.7
2023-02-22T13:45:10.035Z,14.6
2023-02-22T13:48:10.069Z,14.7
2023-02-22T13:51:10.290Z,14.5
2023-02-22T13:54:10.196Z,14.3
2023-02-22T13:57:10.053Z,14.3
2023-02-22T14:00:10.114Z,14.3
2023-02-22T14:03:10.405Z,14.3
2023-02-22T14:06:10.151Z,14.3
2023-02-22T14:09:10.060Z,14.1
2023-02-22T14:12:10.067Z,14.3
2023-02-22T14:15:31.137Z,14.3
2023-02-22T14:18:10.043Z,14.3
2023-02-22T14:21:09.970Z,14.1
2023-02-22T14:24:10.040Z,14.1
2023-02-22T14:27:10.121Z,14.1
2023-02-22T14:30:10.279Z,14
2023-02-22T14:33:10.032Z,13.9
2023-02-22T14:36:10.080Z,13.9
2023-02-22T14:39:10.064Z,13.9
2023-02-22T14:42:09.985Z,13.9
2023-02-22T14:45:10.022Z,13.9
2023-02-22T14:48:10.247Z,13.8
2023-02-22T14:51:34.615Z,13.7
2023-02-22T14:54:09.979Z,13.5
2023-02-22T14:57:09.971Z,13.4
2023-02-22T15:00:10.146Z,13.3
2023-02-22T15:03:10.211Z,13.2
2023-02-22T15:06:10.450Z,13.1
2023-02-22T15:09:10.084Z,13
2023-02-22T15:12:10.121Z,13
2023-02-22T15:15:10.067Z,12.9
2023-02-22T15:18:09.952Z,12.8
2023-02-22T15:21:16.366Z,12.8
2023-02-22T15:24:10.095Z,12.7
2023-02-22T15:27:14.718Z,12.6
2023-02-22T15:30:10.257Z,12.5
2023-02-22T15:33:14.229Z,12.4
2023-02-22T15:36:09.967Z,12.3
2023-02-22T15:39:10.053Z,12.2
2023-02-22T15:42:10.048Z,12.2
2023-02-22T15:45:10.008Z,12.1
2023-02-22T15:48:10.027Z,12
2023-02-22T15:51:10.063Z,11.9
2023-02-22T15:54:26.809Z,11.8
2023-02-22T15:57:10.003Z,11.7
2023-02-22T16:00:10.214Z,11.6
2023-02-22T16:03:10.089Z,11.6
2023-02-22T16:06:12.025Z,11.4
2023-02-22T16:09:10.070Z,11.3
2023-02-22T16:12:10.031Z,11.1
2023-02-22T16:15:10.023Z,10.9
2023-02-22T16:18:12.166Z,10.9
2023-02-22T16:21:10.064Z,10.8
2023-02-22T16:24:24.641Z,10.7
2023-02-22T16:27:10.204Z,10.6
2023-02-22T16:30:28.395Z,10.4
2023-02-22T16:33:10.177Z,10.4
2023-02-22T16:36:10.545Z,10.3
2023-02-22T16:39:10.153Z,10.3
2023-02-22T16:42:10.035Z,10.3
2023-02-22T16:45:10.014Z,10.2
2023-02-22T16:48:09.944Z,10.2
2023-02-22T16:51:09.951Z,10.1
2023-02-22T16:54:09.966Z,10.1
2023-02-22T16:57:10.056Z,10.1
2023-02-22T17:00:09.970Z,10
2023-02-22T17:03:09.957Z,9.9
2023-02-22T17:06:09.958Z,9.9
2023-02-22T17:09:10.005Z,9.8
2023-02-22T17:12:09.954Z,9.8
2023-02-22T17:15:09.978Z,9.8
2023-02-22T17:18:09.950Z,9.8
2023-02-22T17:21:09.940Z,9.6
2023-02-22T17:24:09.985Z,9.6
2023-02-22T17:27:09.899Z,9.6
2023-02-22T17:30:10.041Z,9.6
2023-02-22T17:33:10.015Z,9.6
2023-02-22T17:36:10.049Z,9.6
2023-02-22T17:39:10.019Z,9.6
2023-02-22T17:42:10.002Z,9.5
2023-02-22T17:45:10.001Z,9.4
2023-02-22T17:48:09.960Z,9.4
2023-02-22T17:51:10.039Z,9.4
2023-02-22T17:54:12.303Z,9.4
2023-02-22T17:57:09.894Z,9.3
2023-02-22T18:00:10.129Z,9.3
2023-02-22T18:03:10.398Z,9.3
2023-02-22T18:06:09.923Z,9.2
2023-02-22T18:09:10.079Z,9.1
2023-02-22T18:12:09.925Z,9.1
2023-02-22T18:15:10.010Z,9
2023-02-22T18:18:09.936Z,8.9
2023-02-22T18:21:09.920Z,8.9
2023-02-22T18:24:09.994Z,8.8
2023-02-22T18:27:09.955Z,8.8
2023-02-22T18:30:10.071Z,8.7
2023-02-22T18:33:09.912Z,8.6
2023-02-22T18:36:09.953Z,8.6
2023-02-22T18:39:09.930Z,8.6
2023-02-22T18:42:09.996Z,8.5
2023-02-22T18:45:10.189Z,8.5
2023-02-22T18:48:10.010Z,8.5
2023-02-22T18:51:09.985Z,8.5
2023-02-22T18:54:10.081Z,8.5
2023-02-22T18:57:09.928Z,8.5
2023-02-22T19:00:12.070Z,8.4
2023-02-22T19:03:10.347Z,8.4
2023-02-22T19:06:09.934Z,8.3
2023-02-22T19:09:09.915Z,8.3
2023-02-22T19:12:09.952Z,8.2
2023-02-22T19:15:09.981Z,8.2
2023-02-22T19:18:09.985Z,8.1
2023-02-22T19:21:09.987Z,8.1
2023-02-22T19:24:10.076Z,8
2023-02-22T19:27:10.022Z,7.9
2023-02-22T19:30:10.072Z,7.8
2023-02-22T19:33:09.995Z,7.7
2023-02-22T19:36:09.918Z,7.6
2023-02-22T19:39:09.965Z,7.6
2023-02-22T19:42:10.083Z,7.5
2023-02-22T19:45:10.058Z,7.4
2023-02-22T19:48:09.952Z,7.4
2023-02-22T19:51:10.001Z,7.4
2023-02-22T19:54:09.967Z,7.3
2023-02-22T19:57:09.966Z,7.3
2023-02-22T20:00:09.880Z,7.2
2023-02-22T20:03:10.146Z,7.1
2023-02-22T20:06:09.971Z,7.1
2023-02-22T20:09:09.908Z,7.1
2023-02-22T20:12:10.132Z,7.1
2023-02-22T20:15:09.937Z,7
2023-02-22T20:18:10.023Z,6.9
2023-02-22T20:21:09.946Z,6.9
2023-02-22T20:24:10.037Z,6.8
2023-02-22T20:27:10.153Z,6.8
2023-02-22T20:30:09.993Z,6.8
2023-02-22T20:33:11.558Z,6.9
2023-02-22T20:36:09.982Z,6.8
2023-02-22T20:39:10.010Z,6.8
2023-02-22T20:42:09.939Z,6.8
2023-02-22T20:45:11.878Z,6.8
2023-02-22T20:48:09.975Z,6.8
2023-02-22T20:51:09.940Z,6.8
2023-02-22T20:54:09.973Z,6.7
2023-02-22T20:57:09.917Z,6.7
2023-02-22T21:00:10.621Z,6.7
2023-02-22T21:03:10.030Z,6.7
2023-02-22T21:06:09.898Z,6.6
2023-02-22T21:09:10.035Z,6.5
2023-02-22T21:12:09.946Z,6.4
2023-02-22T21:15:09.984Z,6.4
2023-02-22T21:18:09.924Z,6.3
2023-02-22T21:21:09.888Z,6.2
2023-02-22T21:24:10.018Z,6.2
2023-02-22T21:27:10.054Z,6.1
2023-02-22T21:30:09.914Z,6.1
2023-02-22T21:33:10.055Z,6
2023-02-22T21:36:10.052Z,5.9
2023-02-22T21:39:09.914Z,6
2023-02-22T21:42:09.988Z,6
2023-02-22T21:45:10.067Z,6
2023-02-22T21:48:09.986Z,6
2023-02-22T21:51:09.981Z,6
2023-02-22T21:54:10.118Z,5.9
2023-02-22T21:57:10.031Z,5.9
2023-02-22T22:00:09.988Z,5.9
2023-02-22T22:03:10.100Z,5.9
2023-02-22T22:06:09.951Z,5.9
2023-02-22T22:09:09.987Z,5.9
2023-02-22T22:12:10.115Z,5.9
2023-02-22T22:15:09.878Z,5.9
2023-02-22T22:18:09.956Z,5.9
2023-02-22T22:21:09.953Z,5.9
2023-02-22T22:24:09.930Z,5.9
2023-02-22T22:27:09.910Z,5.9
2023-02-22T22:30:10.027Z,5.9
2023-02-22T22:33:10.068Z,5.9
2023-02-22T22:36:09.921Z,5.9
2023-02-22T22:39:09.961Z,5.9
2023-02-22T22:42:09.945Z,5.8
2023-02-22T22:45:09.888Z,5.8
2023-02-22T22:48:09.977Z,5.7
2023-02-22T22:51:09.879Z,5.8
2023-02-22T22:54:09.966Z,5.8
2023-02-22T22:57:10.178Z,5.7
2023-02-22T23:00:10.709Z,5.7
2023-02-22T23:03:10.678Z,5.7
2023-02-22T23:06:09.943Z,5.7
2023-02-22T23:09:09.863Z,5.7
2023-02-22T23:12:10.027Z,5.6
2023-02-22T23:15:09.887Z,5.6
2023-02-22T23:18:10.016Z,5.6
2023-02-22T23:21:10.011Z,5.6
2023-02-22T23:24:09.924Z,5.6
2023-02-22T23:27:09.983Z,5.6
2023-02-22T23:30:09.940Z,5.6
2023-02-22T23:33:10.041Z,5.7
2023-02-22T23:36:09.951Z,5.7
2023-02-22T23:39:09.932Z,5.7
2023-02-22T23:42:09.974Z,5.7
2023-02-22T23:45:09.979Z,5.7
2023-02-22T23:48:09.987Z,5.7
2023-02-22T23:51:09.898Z,5.6
2023-02-22T23:54:09.961Z,5.6
2023-02-22T23:57:09.999Z,5.6
